Time;durP1;ratioP1;P1;durP2;ratioP2;P2;SDS_P1;SDS_P2;PMS_P1;PMS_P2;Temp;Humidity;BMP_temperature;BMP_pressure;BME280_temperature;BME280_humidity;BME280_pressure;Samples;Min_cycle;Max_cycle;Signal;HPM_P1;HPM_P2
2022/07/09 00:01:18;;;;;;;7.22;1.90;;;;;;;19.19;52.21;99157.78;4486935;32;20329;-82
2022/07/09 00:03:44;;;;;;;7.28;2.00;;;;;;;18.84;53.22;99150.91;4486944;32;20157;-82
2022/07/09 00:06:09;;;;;;;7.05;2.10;;;;;;;19.10;52.43;99164.72;4488270;31;20119;-82
2022/07/09 00:08:35;;;;;;;6.47;1.92;;;;;;;19.12;52.29;99160.09;4487864;32;20104;-81
2022/07/09 00:11:00;;;;;;;6.85;1.87;;;;;;;18.91;52.69;99160.09;4487989;31;20140;-82
2022/07/09 00:13:26;;;;;;;6.80;2.50;;;;;;;19.03;52.51;99180.44;4486886;32;20137;-81
2022/07/09 00:15:52;;;;;;;6.70;2.20;;;;;;;18.82;52.96;99159.03;4486937;32;20111;-82
2022/07/09 00:18:18;;;;;;;8.77;2.20;;;;;;;18.78;52.99;99170.91;4486914;32;20092;-82
2022/07/09 00:20:43;;;;;;;6.70;2.03;;;;;;;18.99;52.45;99176.31;4487983;31;20087;-82
2022/07/09 00:23:09;;;;;;;6.57;2.00;;;;;;;19.09;52.06;99163.03;4486792;32;20112;-82
2022/07/09 00:25:34;;;;;;;6.75;2.00;;;;;;;19.03;52.20;99169.75;4486843;32;20177;-81
2022/07/09 00:28:00;;;;;;;6.12;2.00;;;;;;;19.10;52.02;99159.38;4486943;32;20359;-82
2022/07/09 00:30:25;;;;;;;8.25;2.47;;;;;;;18.95;52.31;99166.00;4488176;31;20081;-82
2022/07/09 00:32:51;;;;;;;6.70;2.40;;;;;;;19.05;52.04;99162.44;4488208;31;20097;-82
2022/07/09 00:35:16;;;;;;;9.13;2.45;;;;;;;18.93;52.39;99163.47;4488123;31;20427;-82
2022/07/09 00:37:42;;;;;;;7.00;2.05;;;;;;;18.75;52.88;99163.13;4488099;31;20094;-82
2022/07/09 00:40:07;;;;;;;5.47;2.08;;;;;;;18.80;52.73;99157.47;4488234;31;20103;-82
2022/07/09 00:42:33;;;;;;;5.50;1.90;;;;;;;18.85;52.59;99152.56;4486911;32;20100;-82
2022/07/09 00:44:58;;;;;;;7.60;2.30;;;;;;;19.03;51.97;99150.22;4488130;31;20403;-82
2022/07/09 00:47:24;;;;;;;6.37;2.15;;;;;;;19.00;51.94;99150.47;4488212;31;20092;-82
2022/07/09 00:49:49;;;;;;;6.90;1.90;;;;;;;19.03;51.87;99153.72;4487066;32;20080;-82
2022/07/09 00:52:17;;;;;;;8.90;2.30;;;;;;;19.18;51.31;99145.38;4488150;32;20173;-82
2022/07/09 00:54:42;;;;;;;8.60;2.30;;;;;;;19.26;51.12;99145.59;4487989;31;20536;-82
2022/07/09 00:57:09;;;;;;;8.07;2.15;;;;;;;19.21;51.29;99139.78;4488001;31;20092;-82
2022/07/09 00:59:36;;;;;;;8.25;2.25;;;;;;;18.92;52.13;99140.41;4488043;31;20084;-82
2022/07/09 01:02:03;;;;;;;5.57;1.83;;;;;;;18.94;51.96;99143.81;4473591;32;20137;-82
2022/07/09 01:04:28;;;;;;;7.18;2.00;;;;;;;18.96;51.93;99160.53;4473734;32;20534;-82
2022/07/09 01:06:54;;;;;;;6.45;2.17;;;;;;;18.73;52.57;99148.22;4487991;31;20123;-82
2022/07/09 01:09:19;;;;;;;7.00;2.00;;;;;;;18.81;52.43;99144.00;4486382;32;20101;-81
2022/07/09 01:11:47;;;;;;;10.75;2.10;;;;;;;18.74;52.54;99141.94;4487945;31;20466;-81
2022/07/09 01:14:12;;;;;;;7.47;1.90;;;;;;;18.76;52.40;99140.81;4486788;32;20134;-81
2022/07/09 01:16:38;;;;;;;8.95;2.30;;;;;;;18.62;52.67;99138.44;4487702;31;20088;-81
2022/07/09 01:19:04;;;;;;;6.18;1.98;;;;;;;18.63;52.64;99145.47;4486367;32;20333;-82
2022/07/09 01:21:29;;;;;;;7.82;2.10;;;;;;;18.84;52.12;99134.88;4487555;31;20127;-82
2022/07/09 01:23:56;;;;;;;8.13;2.10;;;;;;;18.74;52.32;99137.44;4486378;32;20131;-81
2022/07/09 01:26:23;;;;;;;7.40;1.90;;;;;;;18.70;52.44;99135.13;4487580;31;20122;-82
2022/07/09 01:28:48;;;;;;;7.68;2.00;;;;;;;18.82;52.18;99128.81;4486316;32;20149;-82
2022/07/09 01:31:14;;;;;;;7.03;2.12;;;;;;;18.77;52.12;99125.66;4487668;31;20104;-81
2022/07/09 01:33:40;;;;;;;8.43;2.12;;;;;;;18.89;51.67;99123.81;4487522;31;20438;-82
2022/07/09 01:36:08;;;;;;;6.12;2.10;;;;;;;18.85;51.78;99125.88;4487466;31;20133;-81
2022/07/09 01:38:34;;;;;;;10.43;2.12;;;;;;;18.84;51.77;99127.72;4473102;32;20107;-81
2022/07/09 01:40:59;;;;;;;4.75;1.80;;;;;;;18.81;51.91;99128.00;4486197;32;20116;-82
2022/07/09 01:43:25;;;;;;;7.22;2.22;;;;;;;18.79;51.81;99113.84;4486285;32;20104;-82
2022/07/09 01:45:50;;;;;;;7.70;2.17;;;;;;;18.57;52.48;99119.31;4486112;32;20477;-81
2022/07/09 01:48:16;;;;;;;8.30;2.10;;;;;;;18.68;52.16;99119.28;4487352;31;20119;-82
2022/07/09 01:50:41;;;;;;;6.62;2.30;;;;;;;18.67;52.04;99110.41;4487287;32;20387;-81
2022/07/09 01:53:07;;;;;;;7.93;2.12;;;;;;;18.34;52.96;99107.84;4487282;32;20131;-81
2022/07/09 01:55:33;;;;;;;8.73;2.30;;;;;;;18.43;52.69;99112.44;4486212;32;20091;-81
2022/07/09 01:57:58;;;;;;;8.63;2.72;;;;;;;18.46;52.66;99115.69;4486109;32;20103;-82
2022/07/09 02:00:24;;;;;;;8.45;2.60;;;;;;;18.51;52.55;99115.31;4487084;31;20385;-83
2022/07/09 02:02:49;;;;;;;6.75;1.87;;;;;;;18.50;52.61;99115.44;4487404;32;20130;-82
2022/07/09 02:05:15;;;;;;;5.07;1.70;;;;;;;18.46;52.65;99112.16;4486043;32;20389;-83
2022/07/09 02:07:41;;;;;;;9.15;2.67;;;;;;;18.23;53.31;99108.72;4487487;31;20344;-83
2022/07/09 02:10:07;;;;;;;6.95;2.10;;;;;;;18.32;53.07;99107.13;4487399;31;20122;-82
2022/07/09 02:12:32;;;;;;;9.05;2.33;;;;;;;18.24;53.16;99108.59;4487496;31;20374;-82
2022/07/09 02:14:58;;;;;;;7.97;2.17;;;;;;;18.46;52.60;99105.00;4487400;32;20100;-81
2022/07/09 02:17:23;;;;;;;8.65;2.28;;;;;;;18.52;52.22;99111.66;4487382;31;20080;-81
2022/07/09 02:19:49;;;;;;;7.32;2.10;;;;;;;18.66;51.83;99110.53;4473075;32;20159;-81
2022/07/09 02:22:14;;;;;;;8.25;2.35;;;;;;;18.62;51.79;99107.28;4487530;31;20135;-81
2022/07/09 02:24:39;;;;;;;8.15;2.20;;;;;;;18.47;52.16;99106.72;4487502;31;20351;-81
2022/07/09 02:27:05;;;;;;;6.37;2.00;;;;;;;18.56;51.93;99106.91;4486174;32;20091;-81
2022/07/09 02:29:31;;;;;;;8.32;2.58;;;;;;;18.82;51.29;99104.81;4487314;31;20108;-82
2022/07/09 02:31:57;;;;;;;7.55;2.20;;;;;;;18.69;51.55;99110.28;4486119;32;20116;-81
2022/07/09 02:34:23;;;;;;;8.13;2.20;;;;;;;18.78;51.20;99112.19;4487318;31;20092;-81
2022/07/09 02:36:48;;;;;;;6.65;2.25;;;;;;;19.02;50.67;99111.97;4486081;32;20088;-82
2022/07/09 02:39:14;;;;;;;7.28;2.20;;;;;;;19.03;50.52;99111.00;4486049;32;20131;-81
2022/07/09 02:41:39;;;;;;;7.87;2.50;;;;;;;18.91;50.70;99106.72;4487256;31;20173;-81
2022/07/09 02:44:05;;;;;;;10.05;2.62;;;;;;;18.54;51.71;99117.72;4485982;32;20114;-81
2022/07/09 02:46:30;;;;;;;6.35;2.30;;;;;;;18.58;51.68;99116.53;4487331;31;20420;-81
2022/07/09 02:48:55;;;;;;;6.60;2.10;;;;;;;18.60;51.63;99117.22;4487083;31;20452;-81
2022/07/09 02:51:21;;;;;;;7.53;2.50;;;;;;;18.60;51.54;99109.22;4487231;31;20107;-81
2022/07/09 02:53:46;;;;;;;8.10;2.20;;;;;;;18.74;51.16;99108.06;4485934;32;20100;-81
2022/07/09 02:56:11;;;;;;;6.05;2.00;;;;;;;18.56;51.49;99113.12;4487048;31;20088;-82
2022/07/09 02:58:37;;;;;;;8.77;2.35;;;;;;;18.76;51.12;99113.28;4487306;31;20528;-82
2022/07/09 03:01:05;;;;;;;8.40;2.20;;;;;;;18.85;50.83;99110.75;4487041;31;20135;-81
2022/07/09 03:03:30;;;;;;;;;;;;;;;18.89;50.76;99110.47;4486049;32;20478;-81
2022/07/09 03:05:56;;;;;;;6.62;2.30;;;;;;;18.80;50.94;99101.41;4486875;31;19967;-82
2022/07/09 03:08:21;;;;;;;10.68;2.37;;;;;;;18.84;50.92;99109.03;4485170;32;20151;-81
2022/07/09 03:10:48;;;;;;;10.48;2.33;;;;;;;19.04;50.35;99118.06;4485466;32;20092;-81
2022/07/09 03:13:14;;;;;;;7.57;2.30;;;;;;;18.86;50.70;99115.09;4485938;31;20084;-81
2022/07/09 03:15:39;;;;;;;7.45;2.17;;;;;;;18.94;50.67;99108.25;4486582;31;20106;-81
2022/07/09 03:18:07;;;;;;;6.62;2.20;;;;;;;19.11;50.09;99117.53;4486636;32;20119;-81
2022/07/09 03:20:33;;;;;;;8.15;2.55;;;;;;;18.91;50.52;99122.72;4486582;31;20079;-82
2022/07/09 03:22:59;;;;;;;8.43;2.67;;;;;;;19.11;50.04;99112.19;4486571;31;20110;-81
2022/07/09 03:25:24;;;;;;;10.55;2.70;;;;;;;19.37;49.31;99112.62;4486531;31;20132;-81
2022/07/09 03:27:50;;;;;;;6.70;2.30;;;;;;;19.10;49.92;99116.66;4486541;31;20397;-81
2022/07/09 03:30:15;;;;;;;9.68;2.50;;;;;;;19.42;49.25;99116.59;4486526;31;20140;-81
2022/07/09 03:32:40;;;;;;;8.00;2.62;;;;;;;19.48;48.84;99114.38;4485280;32;20152;-81
2022/07/09 03:35:06;;;;;;;7.55;2.40;;;;;;;19.57;48.73;99116.25;4486473;31;20446;-81
2022/07/09 03:37:32;;;;;;;8.10;2.42;;;;;;;19.43;48.80;99114.75;4486406;31;20116;-81
2022/07/09 03:39:58;;;;;;;6.80;2.40;;;;;;;19.14;49.68;99123.47;4486352;31;20083;-81
2022/07/09 03:42:23;;;;;;;10.40;2.78;;;;;;;19.38;49.16;99125.84;4486426;31;20153;-81
2022/07/09 03:44:49;;;;;;;7.00;2.30;;;;;;;19.18;49.60;99124.00;4485188;32;20120;-81
2022/07/09 03:47:14;;;;;;;6.70;2.30;;;;;;;19.31;49.39;99124.66;4486284;31;20349;-81
2022/07/09 03:49:40;;;;;;;9.82;2.78;;;;;;;19.40;49.11;99123.87;4485014;32;20439;-81
2022/07/09 03:52:05;;;;;;;9.90;2.53;;;;;;;19.45;48.99;99123.47;4485068;32;20133;-81
2022/07/09 03:54:31;;;;;;;7.60;2.62;;;;;;;19.57;48.92;99124.28;4484896;32;20343;-81
2022/07/09 03:56:56;;;;;;;7.50;2.17;;;;;;;19.42;49.16;99124.59;4486076;31;20092;-81
2022/07/09 03:59:22;;;;;;;9.15;2.40;;;;;;;19.36;49.30;99132.31;4485946;31;20088;-81
2022/07/09 04:01:47;;;;;;;10.43;2.60;;;;;;;19.42;49.27;99124.59;4484890;32;20080;-82
2022/07/09 04:04:13;;;;;;;9.55;2.65;;;;;;;19.67;48.67;99124.31;4484808;32;20103;-81
2022/07/09 04:06:38;;;;;;;7.32;2.40;;;;;;;19.72;48.46;99133.66;4484810;32;20139;-82
2022/07/09 04:09:04;;;;;;;8.45;2.80;;;;;;;19.62;48.81;99132.72;4485699;31;20144;-82
2022/07/09 04:11:33;;;;;;;6.30;2.47;;;;;;;19.74;48.38;99134.38;4471549;32;20394;-82
2022/07/09 04:14:00;;;;;;;9.48;2.95;;;;;;;19.52;48.83;99139.84;4485965;31;20585;-82
2022/07/09 04:16:25;;;;;;;7.18;2.25;;;;;;;19.33;49.53;99138.75;4471386;32;20152;-81
2022/07/09 04:18:50;;;;;;;10.95;2.42;;;;;;;19.30;49.56;99138.19;4485754;31;20405;-81
2022/07/09 04:21:16;;;;;;;8.68;2.70;;;;;;;19.52;49.08;99130.00;4485765;31;20106;-80
2022/07/09 04:23:42;;;;;;;8.27;2.33;;;;;;;19.80;48.55;99131.16;4486885;31;20130;-82
2022/07/09 04:26:07;;;;;;;7.00;2.58;;;;;;;19.67;48.82;99135.00;4487209;32;20360;-80
2022/07/09 04:28:35;;;;;;;14.70;3.12;;;;;;;19.64;48.87;99136.09;4488174;31;20427;-77
2022/07/09 04:31:01;;;;;;;8.48;2.58;;;;;;;19.88;48.43;99135.84;4487010;32;20088;-77
2022/07/09 04:33:26;;;;;;;7.82;2.58;;;;;;;20.10;48.02;99131.28;4487086;32;20102;-80
2022/07/09 04:35:52;;;;;;;9.52;2.70;;;;;;;20.45;47.10;99129.94;4486892;32;20144;-79
2022/07/09 04:38:17;;;;;;;6.22;2.25;;;;;;;20.54;46.79;99119.25;4488188;31;20114;-79
2022/07/09 04:40:43;;;;;;;9.07;2.70;;;;;;;20.79;46.47;99127.75;4473800;32;20111;-78
2022/07/09 04:43:08;;;;;;;8.63;2.50;;;;;;;21.26;45.48;99117.13;4473712;32;20084;-78
2022/07/09 04:45:34;;;;;;;8.27;2.70;;;;;;;21.32;45.06;99129.12;4488098;31;20092;-81
2022/07/09 04:48:00;;;;;;;9.82;2.65;;;;;;;21.19;45.09;99126.75;4486887;32;20250;-79
2022/07/09 04:50:26;;;;;;;7.10;2.67;;;;;;;21.16;45.13;99129.72;4486897;32;20145;-81
2022/07/09 04:52:51;;;;;;;9.82;2.67;;;;;;;21.01;45.47;99113.22;4486970;32;20114;-79
2022/07/09 04:55:17;;;;;;;7.60;2.72;;;;;;;21.24;45.23;99121.78;4487978;31;20084;-77
2022/07/09 04:57:43;;;;;;;10.48;2.67;;;;;;;21.18;45.01;99120.53;4486701;32;20126;-79
2022/07/09 05:00:10;;;;;;;7.78;2.30;;;;;;;20.76;46.08;99114.63;4485350;32;20145;-79
2022/07/09 05:02:39;;;;;;;7.85;2.47;;;;;;;21.15;45.42;99111.94;4488056;31;20076;-78
2022/07/09 05:05:06;;;;;;;7.22;2.33;;;;;;;21.13;45.32;99119.25;4486782;32;20101;-79
2022/07/09 05:07:32;;;;;;;7.93;2.62;;;;;;;20.79;45.76;99114.38;4486831;32;20100;-79
2022/07/09 05:09:58;;;;;;;8.35;2.70;;;;;;;20.86;45.92;99120.00;4485997;32;20084;-79
2022/07/09 05:12:23;;;;;;;8.05;2.37;;;;;;;20.61;46.49;99130.28;4486688;32;20386;-79
2022/07/09 05:14:49;;;;;;;7.72;2.50;;;;;;;20.44;46.65;99126.44;4486589;32;20177;-79
2022/07/09 05:17:14;;;;;;;6.03;2.30;;;;;;;20.15;47.48;99127.22;4487993;31;20092;-79
2022/07/09 05:19:40;;;;;;;8.07;2.75;;;;;;;20.48;46.74;99121.66;4473582;32;20427;-79
2022/07/09 05:22:05;;;;;;;8.15;2.28;;;;;;;20.26;47.25;99120.03;4487711;31;20136;-79
2022/07/09 05:24:31;;;;;;;5.80;2.10;;;;;;;20.65;46.55;99110.28;4486599;32;20376;-79
2022/07/09 05:26:56;;;;;;;7.03;2.75;;;;;;;20.70;46.23;99120.56;4487798;31;20112;-79
2022/07/09 05:29:22;;;;;;;7.07;2.30;;;;;;;20.74;45.96;99119.28;4486559;32;20374;-79
2022/07/09 05:31:49;;;;;;;7.90;2.60;;;;;;;20.81;45.68;99109.72;4487788;31;20115;-79
2022/07/09 05:34:15;;;;;;;8.50;2.72;;;;;;;20.90;45.52;99124.06;4486277;32;20127;-78
2022/07/09 05:36:40;;;;;;;7.53;2.40;;;;;;;21.16;45.22;99119.00;4486447;32;20143;-79
2022/07/09 05:39:07;;;;;;;6.25;2.10;;;;;;;21.10;45.16;99127.59;4487704;31;20427;-79
2022/07/09 05:41:32;;;;;;;7.12;2.12;;;;;;;21.57;44.23;99122.31;4487696;31;20092;-79
2022/07/09 05:43:58;;;;;;;7.72;2.08;;;;;;;21.96;43.25;99116.78;4486393;32;20503;-79
2022/07/09 05:46:23;;;;;;;10.13;2.40;;;;;;;22.07;43.01;99111.22;4487590;32;20092;-79
2022/07/09 05:48:49;;;;;;;9.88;2.60;;;;;;;22.41;42.20;99112.47;4487551;31;20123;-79
2022/07/09 05:51:14;;;;;;;8.65;2.30;;;;;;;22.56;41.80;99114.50;4487818;31;20080;-79
2022/07/09 05:53:40;;;;;;;8.38;2.15;;;;;;;22.45;41.68;99114.72;4487572;31;20114;-79
2022/07/09 05:56:06;;;;;;;8.73;2.30;;;;;;;22.54;41.92;99113.81;4473220;32;20130;-79
2022/07/09 05:58:31;;;;;;;7.25;2.30;;;;;;;22.29;42.78;99118.06;4487523;31;20108;-79
2022/07/09 06:00:57;;;;;;;7.45;2.30;;;;;;;22.40;42.63;99113.47;4487606;31;20080;-79
2022/07/09 06:03:22;;;;;;;6.90;2.20;;;;;;;22.82;41.78;99121.78;4487538;31;20442;-79
2022/07/09 06:05:48;;;;;;;5.82;2.20;;;;;;;22.67;41.16;99116.09;4487555;31;20112;-79
2022/07/09 06:08:13;;;;;;;9.13;2.53;;;;;;;22.89;40.76;99108.56;4487428;31;20080;-79
2022/07/09 06:10:39;;;;;;;5.70;2.08;;;;;;;23.17;40.65;99109.34;4487581;31;20090;-79
2022/07/09 06:13:04;;;;;;;8.85;2.40;;;;;;;23.00;40.39;99110.19;4487508;31;20089;-79
2022/07/09 06:15:30;;;;;;;5.65;2.15;;;;;;;22.96;40.97;99115.03;4487540;31;20122;-79
2022/07/09 06:17:55;;;;;;;7.87;2.08;;;;;;;23.32;40.65;99107.78;4486232;32;20083;-78
2022/07/09 06:20:20;;;;;;;7.45;2.40;;;;;;;23.05;40.98;99111.44;4486152;32;20100;-79
2022/07/09 06:22:46;;;;;;;9.85;2.30;;;;;;;23.01;41.02;99120.78;4487454;31;20084;-79
2022/07/09 06:25:12;;;;;;;6.65;2.12;;;;;;;23.04;40.88;99116.97;4487185;31;20093;-79
2022/07/09 06:27:37;;;;;;;9.23;2.60;;;;;;;23.06;41.02;99120.34;4487151;31;20080;-79
2022/07/09 06:30:03;;;;;;;6.05;2.10;;;;;;;23.22;40.67;99107.03;4486985;31;20106;-79
2022/07/09 06:32:29;;;;;;;7.28;2.40;;;;;;;23.17;39.98;99107.50;4485899;32;20119;-79
2022/07/09 06:34:54;;;;;;;6.40;2.28;;;;;;;23.00;40.67;99110.19;4487146;31;20348;-79
2022/07/09 06:37:20;;;;;;;7.65;2.33;;;;;;;23.02;40.52;99111.72;4487302;31;20432;-79
2022/07/09 06:39:45;;;;;;;8.02;2.35;;;;;;;23.43;40.00;99130.88;4485951;32;20084;-79
2022/07/09 06:42:12;;;;;;;6.70;2.42;;;;;;;23.45;40.05;99119.94;4487211;31;20088;-79
2022/07/09 06:44:38;;;;;;;6.68;2.25;;;;;;;23.75;39.91;99124.00;4484369;32;20131;-77
2022/07/09 06:47:04;;;;;;;8.73;2.90;;;;;;;23.38;40.01;99124.28;4477355;32;20142;-77
2022/07/09 06:49:30;;;;;;;7.62;2.60;;;;;;;23.60;39.62;99112.16;4470041;32;20482;-78
2022/07/09 06:51:56;;;;;;;6.57;2.35;;;;;;;23.28;40.29;99129.75;4471247;32;20096;-78
2022/07/09 06:54:22;;;;;;;9.85;2.55;;;;;;;23.69;39.66;99128.16;4457003;32;20100;-78
2022/07/09 06:56:47;;;;;;;5.07;2.22;;;;;;;23.62;39.47;99129.81;4470146;32;20104;-78
2022/07/09 06:59:13;;;;;;;6.22;2.50;;;;;;;23.67;39.41;99119.41;4470098;32;20104;-79
2022/07/09 07:01:39;;;;;;;7.55;2.60;;;;;;;23.90;39.11;99114.34;4456844;32;20149;-79
2022/07/09 07:04:05;;;;;;;7.70;2.40;;;;;;;23.81;39.51;99130.63;4471397;32;20085;-79
2022/07/09 07:06:30;;;;;;;6.97;2.45;;;;;;;23.89;39.21;99127.97;4470933;32;20089;-79
2022/07/09 07:08:56;;;;;;;8.48;2.60;;;;;;;23.44;39.99;99118.28;4476633;32;20095;-79
2022/07/09 07:11:21;;;;;;;7.78;2.58;;;;;;;23.67;39.28;99119.41;4486723;32;20119;-79
2022/07/09 07:13:46;;;;;;;6.40;2.37;;;;;;;23.89;38.72;99136.03;4486762;32;20084;-79
2022/07/09 07:16:12;;;;;;;7.57;2.40;;;;;;;23.66;38.71;99123.13;4486713;32;20372;-79
2022/07/09 07:18:38;;;;;;;7.20;2.33;;;;;;;23.58;39.10;99119.53;4459472;32;20462;-79
2022/07/09 07:21:03;;;;;;;7.22;2.47;;;;;;;23.94;38.56;99126.47;4486574;32;20100;-79
2022/07/09 07:23:31;;;;;;;7.68;2.35;;;;;;;24.21;38.40;99126.44;4486564;32;20474;-79
2022/07/09 07:25:58;;;;;;;9.25;2.40;;;;;;;24.40;38.17;99119.94;4472292;32;20084;-78
2022/07/09 07:28:23;;;;;;;8.35;2.40;;;;;;;23.72;38.93;99119.78;4472280;32;20096;-79
2022/07/09 07:30:48;;;;;;;8.95;2.50;;;;;;;23.77;39.46;99129.22;4486727;32;20095;-78
2022/07/09 07:33:14;;;;;;;6.62;2.28;;;;;;;23.55;39.44;99123.38;4486607;32;20081;-77
2022/07/09 07:35:39;;;;;;;7.25;2.70;;;;;;;24.03;38.89;99121.12;4486709;32;20123;-78
2022/07/09 07:38:05;;;;;;;10.52;2.80;;;;;;;23.88;38.75;99137.06;4486293;32;20080;-79
2022/07/09 07:40:30;;;;;;;7.35;2.20;;;;;;;23.67;39.12;99124.78;4486311;32;20111;-79
2022/07/09 07:42:56;;;;;;;7.53;2.67;;;;;;;23.27;39.75;99123.53;4472424;32;20100;-80
2022/07/09 07:45:21;;;;;;;5.57;2.17;;;;;;;23.66;39.24;99127.62;4486511;32;20104;-78
2022/07/09 07:47:47;;;;;;;9.10;2.60;;;;;;;23.91;38.87;99112.50;4486504;32;20127;-79
2022/07/09 07:50:12;;;;;;;6.97;2.22;;;;;;;24.16;38.72;99112.59;4486247;32;20344;-79
2022/07/09 07:52:38;;;;;;;6.68;2.33;;;;;;;24.09;38.28;99121.34;4486091;32;20171;-77
2022/07/09 07:55:03;;;;;;;9.10;2.80;;;;;;;23.92;38.76;99117.72;4486061;32;20231;-79
2022/07/09 07:57:29;;;;;;;8.25;2.72;;;;;;;23.82;38.86;99111.63;4486190;32;20084;-79
2022/07/09 07:59:55;;;;;;;7.22;2.33;;;;;;;24.05;38.67;99116.41;4473899;32;20153;-79
2022/07/09 08:02:20;;;;;;;8.70;2.40;;;;;;;24.32;38.41;99107.28;4473927;32;20116;-79
2022/07/09 08:04:45;;;;;;;7.22;2.33;;;;;;;24.48;37.31;99110.00;4473905;32;20111;-78
2022/07/09 08:07:11;;;;;;;11.00;2.78;;;;;;;24.27;37.90;99118.53;4488128;32;20106;-79
2022/07/09 08:09:36;;;;;;;9.23;2.90;;;;;;;24.28;38.19;99112.16;4473676;32;20100;-79
2022/07/09 08:12:02;;;;;;;7.05;2.25;;;;;;;24.64;37.70;99105.69;4473782;32;20133;-79
2022/07/09 08:14:27;;;;;;;6.70;2.50;;;;;;;24.81;37.35;99106.56;4488086;32;20144;-79
2022/07/09 08:16:53;;;;;;;7.20;2.50;;;;;;;24.56;37.10;99098.44;4473668;32;20471;-79
2022/07/09 08:19:18;;;;;;;8.18;2.50;;;;;;;24.68;36.99;99102.47;4460601;32;20116;-79
2022/07/09 08:21:44;;;;;;;7.43;2.50;;;;;;;24.76;37.14;99101.66;4488058;32;20088;-79
2022/07/09 08:24:09;;;;;;;9.20;2.47;;;;;;;24.69;36.39;99101.50;4487906;32;20154;-78
2022/07/09 08:26:34;;;;;;;7.55;2.60;;;;;;;24.73;36.87;99096.63;4487942;32;20106;-79
2022/07/09 08:29:00;;;;;;;7.20;2.40;;;;;;;24.91;36.74;99089.19;4473646;32;20127;-78
2022/07/09 08:31:25;;;;;;;6.35;2.20;;;;;;;24.65;36.66;99102.00;4487902;32;20139;-79
2022/07/09 08:33:51;;;;;;;9.35;2.70;;;;;;;24.90;36.36;99105.56;4473744;32;20080;-79
2022/07/09 08:36:17;;;;;;;9.63;2.70;;;;;;;24.85;36.75;99092.56;4473391;32;20140;-79
2022/07/09 08:38:43;;;;;;;7.10;2.40;;;;;;;24.98;36.13;99089.38;4487831;32;20463;-80
2022/07/09 08:41:09;;;;;;;7.25;2.30;;;;;;;24.95;35.85;99087.00;4473679;32;20407;-78
2022/07/09 08:43:38;;;;;;;7.47;2.45;;;;;;;24.55;36.29;99091.38;4487717;32;20096;-78
2022/07/09 08:46:04;;;;;;;6.35;2.00;;;;;;;24.86;35.59;99082.62;4473556;32;20151;-78
2022/07/09 08:48:34;;;;;;;7.50;2.50;;;;;;;24.90;35.55;99078.59;4487817;32;20131;-78
2022/07/09 08:51:01;;;;;;;5.30;1.90;;;;;;;25.00;34.77;99081.97;4487787;32;20099;-77
2022/07/09 08:53:27;;;;;;;6.70;2.20;;;;;;;25.06;34.49;99083.97;4487726;32;20131;-78
2022/07/09 08:55:53;;;;;;;5.65;1.87;;;;;;;25.07;33.92;99084.81;4487755;32;20164;-78
2022/07/09 08:58:19;;;;;;;5.37;1.92;;;;;;;24.98;33.90;99088.53;4473677;32;20104;-77
2022/07/09 09:00:45;;;;;;;5.68;2.15;;;;;;;24.79;34.15;99077.06;4473347;32;20096;-78
2022/07/09 09:03:11;;;;;;;5.72;2.15;;;;;;;24.91;34.47;99093.75;4473382;32;20182;-79
2022/07/09 09:05:36;;;;;;;5.18;1.90;;;;;;;25.02;34.39;99085.31;4487724;32;20230;-79
2022/07/09 09:08:16;;;;;;;5.80;1.95;;;;;;;25.13;34.54;99070.69;4473191;32;20130;-78
2022/07/09 09:10:46;;;;;;;7.10;2.20;;;;;;;25.28;34.09;99066.31;4486829;32;20467;-77
2022/07/09 09:13:14;;;;;;;6.53;1.90;;;;;;;25.12;34.41;99072.50;4473532;32;20093;-78
2022/07/09 09:15:40;;;;;;;5.95;1.85;;;;;;;25.21;34.10;99067.12;4487708;32;20142;-78
2022/07/09 09:18:05;;;;;;;6.22;1.85;;;;;;;25.39;33.76;99070.47;4487536;32;20112;-79
2022/07/09 09:20:31;;;;;;;4.65;1.60;;;;;;;25.59;33.48;99070.09;4487687;32;20114;-78
2022/07/09 09:23:02;;;;;;;6.70;2.17;;;;;;;25.49;32.68;99065.72;4473448;32;20084;-78
2022/07/09 09:25:27;;;;;;;6.57;2.22;;;;;;;25.77;32.49;99064.44;4473928;32;20139;-79
2022/07/09 09:27:54;;;;;;;6.82;1.80;;;;;;;25.49;32.88;99056.78;4487486;32;20099;-78
2022/07/09 09:30:21;;;;;;;5.87;2.10;;;;;;;25.62;32.81;99058.97;4473184;32;20677;-76
2022/07/09 09:33:05;;;;;;;6.37;2.10;;;;;;;25.78;32.31;99066.97;4487557;32;20096;-78
2022/07/09 09:35:33;;;;;;;6.80;1.85;;;;;;;25.79;32.38;99057.03;4473202;32;20104;-78
2022/07/09 09:37:59;;;;;;;6.32;2.00;;;;;;;25.28;32.61;99047.44;4460111;32;20135;-78
2022/07/09 09:40:25;;;;;;;7.25;2.20;;;;;;;25.55;32.92;99058.78;4460156;32;20116;-78
2022/07/09 09:42:51;;;;;;;5.53;1.80;;;;;;;25.61;32.93;99051.88;4487503;32;20105;-79
2022/07/09 09:45:16;;;;;;;4.82;1.90;;;;;;;25.79;31.80;99057.03;4474994;32;20085;-79
2022/07/09 09:47:49;;;;;;;8.35;1.80;;;;;;;25.81;32.21;99044.22;4502133;31;20126;-78
2022/07/09 09:50:24;;;;;;;5.55;1.90;;;;;;;25.75;31.96;99050.28;4485155;32;20533;-77
2022/07/09 09:52:51;;;;;;;5.47;1.70;;;;;;;25.79;31.28;99043.56;4487372;32;20177;-78
2022/07/09 09:55:18;;;;;;;8.32;2.03;;;;;;;25.96;31.75;99039.78;4473251;32;20088;-78
2022/07/09 09:57:43;;;;;;;5.95;2.00;;;;;;;25.69;31.99;99038.34;4472958;32;20105;-78
2022/07/09 10:00:11;;;;;;;7.15;2.15;;;;;;;25.92;31.66;99041.13;4473124;32;20123;-79
2022/07/09 10:02:37;;;;;;;;;;;;;;;25.95;31.31;99038.09;4473321;32;20511;-78
2022/07/09 10:05:02;;;;;;;5.80;1.90;;;;;;;26.03;31.51;99037.22;4473021;32;19980;-78
2022/07/09 10:07:29;;;;;;;7.53;1.90;;;;;;;26.07;31.22;99031.28;4473115;32;20157;-78
2022/07/09 10:09:59;;;;;;;6.30;2.00;;;;;;;25.84;31.41;99038.44;4487175;32;20118;-78
2022/07/09 10:12:34;;;;;;;8.18;1.90;;;;;;;25.71;31.17;99036.34;4473447;32;20084;-78
2022/07/09 10:15:00;;;;;;;5.80;1.95;;;;;;;25.93;30.97;99028.50;4472854;32;20545;-78
2022/07/09 10:17:27;;;;;;;7.25;2.00;;;;;;;25.61;31.06;99041.06;4472884;32;20107;-78
2022/07/09 10:20:04;;;;;;;7.50;1.90;;;;;;;25.62;30.93;99035.50;4473074;32;20130;-80
2022/07/09 10:22:41;;;;;;;5.15;1.75;;;;;;;25.44;30.96;99032.19;4472776;32;20110;-78
2022/07/09 10:25:08;;;;;;;4.62;1.90;;;;;;;25.99;30.56;99025.09;4487226;32;20466;-78
2022/07/09 10:27:47;;;;;;;5.45;1.60;;;;;;;25.95;30.55;99030.00;4487277;32;20104;-77
2022/07/09 10:30:32;;;;;;;5.62;1.70;;;;;;;26.16;30.55;99017.75;4472839;32;20155;-78
2022/07/09 10:33:09;;;;;;;7.05;2.00;;;;;;;26.15;30.35;99019.56;4487174;32;20447;-78
2022/07/09 10:35:51;;;;;;;7.05;1.90;;;;;;;26.25;30.42;99013.94;4487022;32;20432;-76
2022/07/09 10:38:17;;;;;;;6.35;1.90;;;;;;;26.17;30.04;99014.00;4487185;32;20119;-78
2022/07/09 10:40:43;;;;;;;6.32;1.77;;;;;;;26.04;29.92;99001.13;4487051;32;20088;-79
2022/07/09 10:43:09;;;;;;;5.65;1.65;;;;;;;25.58;30.32;98999.09;4486959;32;20141;-79
2022/07/09 10:45:34;;;;;;;5.82;1.90;;;;;;;25.92;29.94;99000.66;4472754;32;20131;-77
2022/07/09 10:48:02;;;;;;;5.60;1.90;;;;;;;25.90;29.84;99003.50;4486830;32;20128;-76
2022/07/09 10:50:30;;;;;;;5.12;1.73;;;;;;;25.84;29.93;99000.66;4486920;32;20128;-75
2022/07/09 10:52:55;;;;;;;;;;;;;;;26.09;29.17;98996.00;4473104;32;20227;-78
2022/07/09 10:55:26;;;;;;;9.13;1.98;;;;;;;25.88;29.63;99007.38;4459711;32;20308;-80
2022/07/09 10:57:52;;;;;;;5.68;1.85;;;;;;;25.82;29.30;98997.31;4472778;32;20131;-79
2022/07/09 11:00:20;;;;;;;5.07;1.70;;;;;;;25.79;29.52;99003.06;4486924;32;20092;-78
2022/07/09 11:02:53;;;;;;;7.00;1.85;;;;;;;26.11;29.44;98991.25;4472641;32;20107;-78
2022/07/09 11:05:19;;;;;;;4.55;1.67;;;;;;;25.98;29.14;98983.75;4472619;32;20076;-78
2022/07/09 11:07:59;;;;;;;5.60;1.95;;;;;;;26.16;28.78;98988.03;4486805;32;20118;-78
2022/07/09 11:10:26;;;;;;;6.28;1.80;;;;;;;25.73;29.18;98987.56;4472390;32;20100;-78
2022/07/09 11:12:52;;;;;;;6.60;2.00;;;;;;;25.89;28.82;98987.50;4486748;32;20092;-78
2022/07/09 11:15:19;;;;;;;4.85;1.40;;;;;;;25.79;29.02;98985.00;4472444;32;20455;-78
2022/07/09 11:17:44;;;;;;;5.53;1.60;;;;;;;25.90;28.97;98981.06;4486684;32;20460;-78
2022/07/09 11:20:13;;;;;;;7.47;1.85;;;;;;;26.20;28.10;98986.66;4472355;32;20200;-78
2022/07/09 11:22:38;;;;;;;7.55;1.70;;;;;;;26.20;28.02;98983.97;4472299;32;20147;-78
2022/07/09 11:25:04;;;;;;;5.55;1.60;;;;;;;26.20;28.19;98968.59;4472341;32;20089;-78
2022/07/09 11:27:29;;;;;;;8.82;1.90;;;;;;;26.00;28.97;98975.47;4472190;32;20153;-77
2022/07/09 11:30:01;;;;;;;6.72;1.90;;;;;;;26.06;28.72;98958.56;4472467;32;20104;-77